sensor_id;sensor_type;location;lat;lon;timestamp;P1;durP1;ratioP1;P2;durP2;ratioP2
33138;SDS011;19501;50.948;5.316;2023-10-19T00:00:54;11.30;;;4.88;;
33138;SDS011;19501;50.948;5.316;2023-10-19T00:03:21;10.88;;;5.03;;
33138;SDS011;19501;50.948;5.316;2023-10-19T00:05:48;14.75;;;5.07;;
33138;SDS011;19501;50.948;5.316;2023-10-19T00:08:14;11.90;;;4.78;;
33138;SDS011;19501;50.948;5.316;2023-10-19T00:10:43;10.93;;;4.95;;
33138;SDS011;19501;50.948;5.316;2023-10-19T00:13:13;12.27;;;4.88;;
33138;SDS011;19501;50.948;5.316;2023-10-19T00:15:39;12.77;;;5.25;;
33138;SDS011;19501;50.948;5.316;2023-10-19T00:18:12;12.95;;;5.43;;
33138;SDS011;19501;50.948;5.316;2023-10-19T00:20:40;11.95;;;4.85;;
33138;SDS011;19501;50.948;5.316;2023-10-19T00:23:10;15.52;;;5.53;;
33138;SDS011;19501;50.948;5.316;2023-10-19T00:25:43;10.02;;;4.90;;
33138;SDS011;19501;50.948;5.316;2023-10-19T00:28:14;11.57;;;4.70;;
33138;SDS011;19501;50.948;5.316;2023-10-19T00:30:42;12.25;;;4.80;;
33138;SDS011;19501;50.948;5.316;2023-10-19T00:33:10;9.77;;;4.85;;
33138;SDS011;19501;50.948;5.316;2023-10-19T00:35:47;12.73;;;4.60;;
33138;SDS011;19501;50.948;5.316;2023-10-19T00:38:22;9.48;;;4.43;;
33138;SDS011;19501;50.948;5.316;2023-10-19T00:40:54;10.98;;;4.70;;
33138;SDS011;19501;50.948;5.316;2023-10-19T00:43:42;12.60;;;4.93;;
33138;SDS011;19501;50.948;5.316;2023-10-19T00:46:12;9.77;;;4.47;;
33138;SDS011;19501;50.948;5.316;2023-10-19T00:48:44;8.70;;;4.07;;
33138;SDS011;19501;50.948;5.316;2023-10-19T00:51:17;9.80;;;4.00;;
33138;SDS011;19501;50.948;5.316;2023-10-19T00:53:53;12.27;;;3.70;;
33138;SDS011;19501;50.948;5.316;2023-10-19T00:56:24;12.80;;;3.70;;
33138;SDS011;19501;50.948;5.316;2023-10-19T00:58:53;9.40;;;3.47;;
33138;SDS011;19501;50.948;5.316;2023-10-19T01:01:25;11.40;;;2.97;;
33138;SDS011;19501;50.948;5.316;2023-10-19T01:03:56;10.05;;;2.30;;
33138;SDS011;19501;50.948;5.316;2023-10-19T01:06:23;9.10;;;2.40;;
33138;SDS011;19501;50.948;5.316;2023-10-19T01:08:50;10.38;;;2.80;;
33138;SDS011;19501;50.948;5.316;2023-10-19T01:11:17;9.75;;;2.38;;
33138;SDS011;19501;50.948;5.316;2023-10-19T01:13:46;8.48;;;2.28;;
33138;SDS011;19501;50.948;5.316;2023-10-19T01:16:17;9.30;;;2.00;;
33138;SDS011;19501;50.948;5.316;2023-10-19T01:18:47;6.97;;;2.00;;
33138;SDS011;19501;50.948;5.316;2023-10-19T01:21:13;11.55;;;2.38;;
33138;SDS011;19501;50.948;5.316;2023-10-19T01:23:39;9.50;;;2.30;;
33138;SDS011;19501;50.948;5.316;2023-10-19T01:26:05;8.30;;;1.80;;
33138;SDS011;19501;50.948;5.316;2023-10-19T01:28:35;6.40;;;2.10;;
33138;SDS011;19501;50.948;5.316;2023-10-19T01:31:25;7.60;;;1.98;;
33138;SDS011;19501;50.948;5.316;2023-10-19T01:33:54;10.15;;;2.00;;
33138;SDS011;19501;50.948;5.316;2023-10-19T01:36:24;7.13;;;1.90;;
33138;SDS011;19501;50.948;5.316;2023-10-19T01:38:51;8.07;;;1.98;;
33138;SDS011;19501;50.948;5.316;2023-10-19T01:41:21;7.40;;;1.83;;
33138;SDS011;19501;50.948;5.316;2023-10-19T01:43:50;8.30;;;2.40;;
33138;SDS011;19501;50.948;5.316;2023-10-19T01:46:18;8.07;;;2.10;;
33138;SDS011;19501;50.948;5.316;2023-10-19T01:49:01;7.87;;;1.80;;
33138;SDS011;19501;50.948;5.316;2023-10-19T01:51:29;12.65;;;2.83;;
33138;SDS011;19501;50.948;5.316;2023-10-19T01:53:58;4.80;;;1.60;;
33138;SDS011;19501;50.948;5.316;2023-10-19T01:56:26;6.57;;;2.00;;
33138;SDS011;19501;50.948;5.316;2023-10-19T01:58:52;9.23;;;2.13;;
33138;SDS011;19501;50.948;5.316;2023-10-19T02:01:19;7.65;;;2.22;;
33138;SDS011;19501;50.948;5.316;2023-10-19T02:03:47;7.78;;;1.90;;
33138;SDS011;19501;50.948;5.316;2023-10-19T02:06:19;7.00;;;1.90;;
33138;SDS011;19501;50.948;5.316;2023-10-19T02:09:11;4.32;;;1.80;;
33138;SDS011;19501;50.948;5.316;2023-10-19T02:11:40;11.32;;;2.78;;
33138;SDS011;19501;50.948;5.316;2023-10-19T02:14:07;7.28;;;2.38;;
33138;SDS011;19501;50.948;5.316;2023-10-19T02:16:39;13.05;;;2.17;;
33138;SDS011;19501;50.948;5.316;2023-10-19T02:19:06;9.98;;;2.70;;
33138;SDS011;19501;50.948;5.316;2023-10-19T02:21:31;9.40;;;1.90;;
33138;SDS011;19501;50.948;5.316;2023-10-19T02:24:03;7.85;;;1.90;;
33138;SDS011;19501;50.948;5.316;2023-10-19T02:26:29;6.28;;;1.85;;
33138;SDS011;19501;50.948;5.316;2023-10-19T02:28:56;9.80;;;2.20;;
33138;SDS011;19501;50.948;5.316;2023-10-19T02:31:23;6.47;;;1.73;;
33138;SDS011;19501;50.948;5.316;2023-10-19T02:33:53;8.43;;;1.95;;
33138;SDS011;19501;50.948;5.316;2023-10-19T02:38:58;5.20;;;1.73;;
33138;SDS011;19501;50.948;5.316;2023-10-19T02:41:28;5.35;;;1.75;;
33138;SDS011;19501;50.948;5.316;2023-10-19T02:43:54;10.30;;;1.80;;
33138;SDS011;19501;50.948;5.316;2023-10-19T02:46:30;9.88;;;2.67;;
33138;SDS011;19501;50.948;5.316;2023-10-19T02:49:00;6.63;;;1.95;;
33138;SDS011;19501;50.948;5.316;2023-10-19T02:51:28;8.30;;;1.92;;
33138;SDS011;19501;50.948;5.316;2023-10-19T02:53:54;6.70;;;1.88;;
33138;SDS011;19501;50.948;5.316;2023-10-19T02:56:20;6.90;;;2.40;;
33138;SDS011;19501;50.948;5.316;2023-10-19T02:58:48;10.48;;;2.08;;
33138;SDS011;19501;50.948;5.316;2023-10-19T03:03:45;5.78;;;2.13;;
33138;SDS011;19501;50.948;5.316;2023-10-19T03:06:11;8.63;;;1.80;;
33138;SDS011;19501;50.948;5.316;2023-10-19T03:08:37;9.70;;;1.90;;
33138;SDS011;19501;50.948;5.316;2023-10-19T03:11:02;9.00;;;1.60;;
33138;SDS011;19501;50.948;5.316;2023-10-19T03:13:32;9.43;;;2.03;;
33138;SDS011;19501;50.948;5.316;2023-10-19T03:15:58;12.00;;;3.15;;
33138;SDS011;19501;50.948;5.316;2023-10-19T03:18:26;5.68;;;2.00;;
33138;SDS011;19501;50.948;5.316;2023-10-19T03:20:53;11.10;;;2.20;;
33138;SDS011;19501;50.948;5.316;2023-10-19T03:23:19;10.02;;;2.28;;
33138;SDS011;19501;50.948;5.316;2023-10-19T03:25:46;15.70;;;2.55;;
33138;SDS011;19501;50.948;5.316;2023-10-19T03:28:34;7.05;;;2.05;;
33138;SDS011;19501;50.948;5.316;2023-10-19T03:31:00;8.95;;;2.05;;
33138;SDS011;19501;50.948;5.316;2023-10-19T03:33:26;9.25;;;2.00;;
33138;SDS011;19501;50.948;5.316;2023-10-19T03:35:53;7.88;;;1.95;;
33138;SDS011;19501;50.948;5.316;2023-10-19T03:38:19;11.90;;;2.38;;
33138;SDS011;19501;50.948;5.316;2023-10-19T03:40:48;13.85;;;3.10;;
33138;SDS011;19501;50.948;5.316;2023-10-19T03:43:20;6.93;;;1.95;;
33138;SDS011;19501;50.948;5.316;2023-10-19T03:45:52;9.63;;;2.08;;
33138;SDS011;19501;50.948;5.316;2023-10-19T03:48:19;7.60;;;2.22;;
33138;SDS011;19501;50.948;5.316;2023-10-19T03:50:52;6.78;;;1.92;;
33138;SDS011;19501;50.948;5.316;2023-10-19T03:53:21;4.78;;;2.22;;
33138;SDS011;19501;50.948;5.316;2023-10-19T03:55:47;7.97;;;2.53;;
33138;SDS011;19501;50.948;5.316;2023-10-19T03:58:15;12.05;;;2.75;;
33138;SDS011;19501;50.948;5.316;2023-10-19T04:00:41;13.25;;;2.60;;
33138;SDS011;19501;50.948;5.316;2023-10-19T04:03:07;10.75;;;2.55;;
33138;SDS011;19501;50.948;5.316;2023-10-19T04:05:33;12.48;;;2.50;;
33138;SDS011;19501;50.948;5.316;2023-10-19T04:08:04;7.00;;;2.25;;
33138;SDS011;19501;50.948;5.316;2023-10-19T04:10:39;8.60;;;2.40;;
33138;SDS011;19501;50.948;5.316;2023-10-19T04:13:09;9.60;;;2.10;;
33138;SDS011;19501;50.948;5.316;2023-10-19T04:15:36;9.20;;;2.30;;
33138;SDS011;19501;50.948;5.316;2023-10-19T04:18:02;10.23;;;2.60;;
33138;SDS011;19501;50.948;5.316;2023-10-19T04:20:36;10.48;;;2.50;;
33138;SDS011;19501;50.948;5.316;2023-10-19T04:23:08;10.05;;;2.80;;
33138;SDS011;19501;50.948;5.316;2023-10-19T04:25:40;10.98;;;2.42;;
33138;SDS011;19501;50.948;5.316;2023-10-19T04:28:06;14.38;;;2.85;;
33138;SDS011;19501;50.948;5.316;2023-10-19T04:30:32;9.68;;;2.60;;
33138;SDS011;19501;50.948;5.316;2023-10-19T04:32:58;10.52;;;2.75;;
33138;SDS011;19501;50.948;5.316;2023-10-19T04:35:27;9.15;;;2.60;;
33138;SDS011;19501;50.948;5.316;2023-10-19T04:37:57;10.98;;;2.75;;
33138;SDS011;19501;50.948;5.316;2023-10-19T04:40:23;15.30;;;3.15;;
33138;SDS011;19501;50.948;5.316;2023-10-19T04:42:50;15.88;;;3.40;;
33138;SDS011;19501;50.948;5.316;2023-10-19T04:45:16;13.98;;;3.25;;
33138;SDS011;19501;50.948;5.316;2023-10-19T04:47:42;12.93;;;3.13;;
33138;SDS011;19501;50.948;5.316;2023-10-19T04:50:08;11.48;;;2.88;;
33138;SDS011;19501;50.948;5.316;2023-10-19T04:52:37;12.10;;;2.47;;
33138;SDS011;19501;50.948;5.316;2023-10-19T04:55:03;10.48;;;2.63;;
33138;SDS011;19501;50.948;5.316;2023-10-19T04:57:30;11.18;;;2.95;;
33138;SDS011;19501;50.948;5.316;2023-10-19T04:59:55;14.70;;;2.75;;
33138;SDS011;19501;50.948;5.316;2023-10-19T05:02:22;9.85;;;2.70;;
33138;SDS011;19501;50.948;5.316;2023-10-19T05:04:47;17.20;;;3.85;;
33138;SDS011;19501;50.948;5.316;2023-10-19T05:07:13;12.98;;;3.00;;
33138;SDS011;19501;50.948;5.316;2023-10-19T05:09:42;11.95;;;2.80;;
33138;SDS011;19501;50.948;5.316;2023-10-19T05:12:09;8.57;;;3.10;;
33138;SDS011;19501;50.948;5.316;2023-10-19T05:14:39;17.50;;;3.45;;
33138;SDS011;19501;50.948;5.316;2023-10-19T05:17:06;13.38;;;3.35;;
33138;SDS011;19501;50.948;5.316;2023-10-19T05:19:34;15.90;;;3.00;;
33138;SDS011;19501;50.948;5.316;2023-10-19T05:22:04;15.13;;;4.20;;
33138;SDS011;19501;50.948;5.316;2023-10-19T05:24:31;14.38;;;2.90;;
33138;SDS011;19501;50.948;5.316;2023-10-19T05:26:57;6.72;;;2.97;;
33138;SDS011;19501;50.948;5.316;2023-10-19T05:29:23;15.02;;;4.03;;
33138;SDS011;19501;50.948;5.316;2023-10-19T05:31:50;15.35;;;3.90;;
33138;SDS011;19501;50.948;5.316;2023-10-19T05:34:19;18.05;;;3.53;;
33138;SDS011;19501;50.948;5.316;2023-10-19T05:36:45;13.45;;;2.92;;
33138;SDS011;19501;50.948;5.316;2023-10-19T05:39:13;8.23;;;2.63;;
33138;SDS011;19501;50.948;5.316;2023-10-19T05:41:45;17.77;;;3.97;;
33138;SDS011;19501;50.948;5.316;2023-10-19T05:44:12;11.45;;;2.78;;
33138;SDS011;19501;50.948;5.316;2023-10-19T05:46:37;13.80;;;2.88;;
33138;SDS011;19501;50.948;5.316;2023-10-19T05:49:05;12.55;;;3.70;;
33138;SDS011;19501;50.948;5.316;2023-10-19T05:51:33;14.48;;;2.78;;
33138;SDS011;19501;50.948;5.316;2023-10-19T05:53:58;14.10;;;3.10;;
33138;SDS011;19501;50.948;5.316;2023-10-19T05:56:31;14.65;;;2.88;;
33138;SDS011;19501;50.948;5.316;2023-10-19T05:58:59;14.77;;;3.10;;
33138;SDS011;19501;50.948;5.316;2023-10-19T06:01:26;12.43;;;3.00;;
33138;SDS011;19501;50.948;5.316;2023-10-19T06:03:52;12.30;;;2.90;;
33138;SDS011;19501;50.948;5.316;2023-10-19T06:06:18;16.00;;;3.03;;
33138;SDS011;19501;50.948;5.316;2023-10-19T06:08:45;15.73;;;3.53;;
33138;SDS011;19501;50.948;5.316;2023-10-19T06:11:10;11.32;;;2.70;;
33138;SDS011;19501;50.948;5.316;2023-10-19T06:13:36;15.43;;;3.42;;
33138;SDS011;19501;50.948;5.316;2023-10-19T06:16:02;11.57;;;2.60;;
33138;SDS011;19501;50.948;5.316;2023-10-19T06:18:27;13.98;;;2.90;;
33138;SDS011;19501;50.948;5.316;2023-10-19T06:20:54;14.75;;;3.17;;
33138;SDS011;19501;50.948;5.316;2023-10-19T06:23:20;9.45;;;3.00;;
33138;SDS011;19501;50.948;5.316;2023-10-19T06:25:46;13.85;;;2.80;;
33138;SDS011;19501;50.948;5.316;2023-10-19T06:28:12;11.70;;;2.78;;
33138;SDS011;19501;50.948;5.316;2023-10-19T06:30:37;15.45;;;3.22;;
33138;SDS011;19501;50.948;5.316;2023-10-19T06:33:06;14.40;;;3.40;;
33138;SDS011;19501;50.948;5.316;2023-10-19T06:35:32;13.43;;;2.90;;
33138;SDS011;19501;50.948;5.316;2023-10-19T06:37:59;15.15;;;3.53;;
33138;SDS011;19501;50.948;5.316;2023-10-19T06:40:25;12.45;;;2.45;;
33138;SDS011;19501;50.948;5.316;2023-10-19T06:42:52;12.45;;;3.15;;
33138;SDS011;19501;50.948;5.316;2023-10-19T06:45:25;20.25;;;4.38;;
33138;SDS011;19501;50.948;5.316;2023-10-19T06:47:51;18.55;;;2.72;;
33138;SDS011;19501;50.948;5.316;2023-10-19T06:50:17;14.68;;;2.80;;
33138;SDS011;19501;50.948;5.316;2023-10-19T06:52:47;12.77;;;2.80;;
33138;SDS011;19501;50.948;5.316;2023-10-19T06:55:13;10.68;;;2.90;;
33138;SDS011;19501;50.948;5.316;2023-10-19T06:57:45;8.90;;;2.90;;
33138;SDS011;19501;50.948;5.316;2023-10-19T07:00:13;15.57;;;4.13;;
33138;SDS011;19501;50.948;5.316;2023-10-19T07:02:47;13.65;;;2.95;;
33138;SDS011;19501;50.948;5.316;2023-10-19T07:05:14;13.45;;;2.97;;
33138;SDS011;19501;50.948;5.316;2023-10-19T07:07:43;19.73;;;4.07;;
33138;SDS011;19501;50.948;5.316;2023-10-19T07:10:10;11.63;;;2.90;;
33138;SDS011;19501;50.948;5.316;2023-10-19T07:12:43;13.95;;;3.17;;
33138;SDS011;19501;50.948;5.316;2023-10-19T07:15:09;21.42;;;3.40;;
33138;SDS011;19501;50.948;5.316;2023-10-19T07:17:44;12.00;;;3.22;;
33138;SDS011;19501;50.948;5.316;2023-10-19T07:20:12;19.77;;;3.60;;
33138;SDS011;19501;50.948;5.316;2023-10-19T07:23:08;14.32;;;3.13;;
33138;SDS011;19501;50.948;5.316;2023-10-19T07:25:44;10.18;;;2.53;;
33138;SDS011;19501;50.948;5.316;2023-10-19T07:28:12;18.20;;;3.92;;
33138;SDS011;19501;50.948;5.316;2023-10-19T07:30:39;11.25;;;2.90;;
33138;SDS011;19501;50.948;5.316;2023-10-19T07:33:09;19.27;;;3.78;;
33138;SDS011;19501;50.948;5.316;2023-10-19T07:35:36;14.13;;;3.17;;
33138;SDS011;19501;50.948;5.316;2023-10-19T07:38:08;13.68;;;2.92;;
33138;SDS011;19501;50.948;5.316;2023-10-19T07:40:35;20.17;;;3.47;;
33138;SDS011;19501;50.948;5.316;2023-10-19T07:43:01;15.93;;;3.88;;
33138;SDS011;19501;50.948;5.316;2023-10-19T07:45:28;14.02;;;3.55;;
33138;SDS011;19501;50.948;5.316;2023-10-19T07:47:56;18.13;;;3.38;;
33138;SDS011;19501;50.948;5.316;2023-10-19T07:50:23;10.25;;;2.72;;
33138;SDS011;19501;50.948;5.316;2023-10-19T07:52:52;15.63;;;4.20;;
33138;SDS011;19501;50.948;5.316;2023-10-19T07:55:20;14.13;;;3.22;;
33138;SDS011;19501;50.948;5.316;2023-10-19T07:57:50;12.68;;;3.33;;
33138;SDS011;19501;50.948;5.316;2023-10-19T08:00:16;15.00;;;3.65;;
33138;SDS011;19501;50.948;5.316;2023-10-19T08:02:43;16.88;;;3.58;;
33138;SDS011;19501;50.948;5.316;2023-10-19T08:05:16;14.38;;;3.28;;
33138;SDS011;19501;50.948;5.316;2023-10-19T08:07:45;14.38;;;3.10;;
33138;SDS011;19501;50.948;5.316;2023-10-19T08:10:16;17.55;;;3.42;;
33138;SDS011;19501;50.948;5.316;2023-10-19T08:12:45;13.15;;;2.85;;
33138;SDS011;19501;50.948;5.316;2023-10-19T08:15:15;15.15;;;3.63;;
33138;SDS011;19501;50.948;5.316;2023-10-19T08:17:42;20.88;;;3.28;;
33138;SDS011;19501;50.948;5.316;2023-10-19T08:20:13;14.97;;;2.87;;
33138;SDS011;19501;50.948;5.316;2023-10-19T08:22:50;10.57;;;3.05;;
33138;SDS011;19501;50.948;5.316;2023-10-19T08:25:16;13.90;;;3.38;;
33138;SDS011;19501;50.948;5.316;2023-10-19T08:27:43;14.35;;;3.30;;
33138;SDS011;19501;50.948;5.316;2023-10-19T08:30:20;16.98;;;3.40;;
33138;SDS011;19501;50.948;5.316;2023-10-19T08:32:46;20.58;;;3.80;;
33138;SDS011;19501;50.948;5.316;2023-10-19T08:35:13;14.00;;;3.20;;
33138;SDS011;19501;50.948;5.316;2023-10-19T08:37:39;15.77;;;2.97;;
33138;SDS011;19501;50.948;5.316;2023-10-19T08:40:13;16.13;;;3.42;;
33138;SDS011;19501;50.948;5.316;2023-10-19T08:42:44;16.40;;;4.43;;
33138;SDS011;19501;50.948;5.316;2023-10-19T08:45:13;23.55;;;4.80;;
33138;SDS011;19501;50.948;5.316;2023-10-19T08:47:50;12.80;;;3.42;;
33138;SDS011;19501;50.948;5.316;2023-10-19T08:50:26;14.30;;;3.25;;
33138;SDS011;19501;50.948;5.316;2023-10-19T08:52:58;14.07;;;3.72;;
33138;SDS011;19501;50.948;5.316;2023-10-19T08:55:26;18.55;;;3.35;;
33138;SDS011;19501;50.948;5.316;2023-10-19T08:57:52;19.10;;;4.20;;
33138;SDS011;19501;50.948;5.316;2023-10-19T09:00:20;13.00;;;3.22;;
33138;SDS011;19501;50.948;5.316;2023-10-19T09:02:50;21.65;;;4.20;;
33138;SDS011;19501;50.948;5.316;2023-10-19T09:05:17;15.57;;;3.47;;
33138;SDS011;19501;50.948;5.316;2023-10-19T09:07:53;19.73;;;2.97;;
33138;SDS011;19501;50.948;5.316;2023-10-19T09:13:03;18.45;;;3.95;;
33138;SDS011;19501;50.948;5.316;2023-10-19T09:15:33;20.15;;;3.95;;
33138;SDS011;19501;50.948;5.316;2023-10-19T09:20:41;18.42;;;3.88;;
33138;SDS011;19501;50.948;5.316;2023-10-19T09:23:07;14.80;;;3.50;;
33138;SDS011;19501;50.948;5.316;2023-10-19T09:25:33;17.75;;;3.25;;
33138;SDS011;19501;50.948;5.316;2023-10-19T09:28:00;15.30;;;3.38;;
33138;SDS011;19501;50.948;5.316;2023-10-19T09:30:27;19.02;;;4.53;;
33138;SDS011;19501;50.948;5.316;2023-10-19T09:32:56;17.27;;;3.97;;
33138;SDS011;19501;50.948;5.316;2023-10-19T09:35:24;18.20;;;3.13;;
33138;SDS011;19501;50.948;5.316;2023-10-19T09:37:53;16.38;;;3.53;;
33138;SDS011;19501;50.948;5.316;2023-10-19T09:40:19;11.45;;;3.40;;
33138;SDS011;19501;50.948;5.316;2023-10-19T09:42:49;16.80;;;3.33;;
33138;SDS011;19501;50.948;5.316;2023-10-19T09:45:21;18.75;;;3.38;;
33138;SDS011;19501;50.948;5.316;2023-10-19T09:47:53;16.83;;;4.20;;
33138;SDS011;19501;50.948;5.316;2023-10-19T09:50:19;15.32;;;3.15;;
33138;SDS011;19501;50.948;5.316;2023-10-19T09:52:45;20.70;;;4.47;;
33138;SDS011;19501;50.948;5.316;2023-10-19T09:55:32;15.77;;;3.45;;
33138;SDS011;19501;50.948;5.316;2023-10-19T09:58:03;15.93;;;3.65;;
33138;SDS011;19501;50.948;5.316;2023-10-19T10:00:42;16.90;;;3.20;;
33138;SDS011;19501;50.948;5.316;2023-10-19T10:03:34;19.20;;;3.72;;
33138;SDS011;19501;50.948;5.316;2023-10-19T10:06:12;17.23;;;3.10;;
33138;SDS011;19501;50.948;5.316;2023-10-19T10:08:40;16.55;;;3.72;;
33138;SDS011;19501;50.948;5.316;2023-10-19T10:11:14;21.40;;;3.70;;
33138;SDS011;19501;50.948;5.316;2023-10-19T10:13:44;13.88;;;3.28;;
33138;SDS011;19501;50.948;5.316;2023-10-19T10:16:15;17.65;;;3.80;;
33138;SDS011;19501;50.948;5.316;2023-10-19T10:18:41;18.75;;;4.30;;
33138;SDS011;19501;50.948;5.316;2023-10-19T10:21:07;17.08;;;4.40;;
33138;SDS011;19501;50.948;5.316;2023-10-19T10:30:00;17.37;;;3.80;;
33138;SDS011;19501;50.948;5.316;2023-10-19T10:38:05;16.17;;;3.30;;
33138;SDS011;19501;50.948;5.316;2023-10-19T10:40:46;18.23;;;4.25;;
33138;SDS011;19501;50.948;5.316;2023-10-19T10:43:14;17.60;;;4.10;;
33138;SDS011;19501;50.948;5.316;2023-10-19T10:45:40;20.65;;;3.97;;
33138;SDS011;19501;50.948;5.316;2023-10-19T10:50:38;13.65;;;3.50;;
33138;SDS011;19501;50.948;5.316;2023-10-19T10:53:06;22.83;;;3.72;;
33138;SDS011;19501;50.948;5.316;2023-10-19T10:55:40;22.00;;;3.83;;
33138;SDS011;19501;50.948;5.316;2023-10-19T10:58:06;15.68;;;3.50;;
33138;SDS011;19501;50.948;5.316;2023-10-19T11:00:32;21.38;;;4.38;;
33138;SDS011;19501;50.948;5.316;2023-10-19T11:03:03;18.35;;;3.80;;
33138;SDS011;19501;50.948;5.316;2023-10-19T11:05:32;17.83;;;3.33;;
33138;SDS011;19501;50.948;5.316;2023-10-19T11:08:13;19.10;;;4.50;;
33138;SDS011;19501;50.948;5.316;2023-10-19T11:10:46;21.00;;;3.72;;
33138;SDS011;19501;50.948;5.316;2023-10-19T11:13:15;22.48;;;4.65;;
33138;SDS011;19501;50.948;5.316;2023-10-19T11:15:53;21.52;;;4.28;;
33138;SDS011;19501;50.948;5.316;2023-10-19T11:21:09;17.10;;;4.15;;
33138;SDS011;19501;50.948;5.316;2023-10-19T11:26:07;21.17;;;4.00;;
33138;SDS011;19501;50.948;5.316;2023-10-19T11:31:20;18.55;;;4.20;;
33138;SDS011;19501;50.948;5.316;2023-10-19T11:33:48;15.88;;;3.47;;
33138;SDS011;19501;50.948;5.316;2023-10-19T11:36:18;13.30;;;4.07;;
33138;SDS011;19501;50.948;5.316;2023-10-19T11:38:46;18.25;;;3.80;;
33138;SDS011;19501;50.948;5.316;2023-10-19T11:41:14;17.50;;;3.72;;
33138;SDS011;19501;50.948;5.316;2023-10-19T11:43:42;17.40;;;3.10;;
33138;SDS011;19501;50.948;5.316;2023-10-19T11:46:09;17.63;;;4.47;;
33138;SDS011;19501;50.948;5.316;2023-10-19T11:48:37;17.15;;;3.40;;
33138;SDS011;19501;50.948;5.316;2023-10-19T11:51:04;15.32;;;3.90;;
33138;SDS011;19501;50.948;5.316;2023-10-19T11:53:34;15.32;;;3.33;;
33138;SDS011;19501;50.948;5.316;2023-10-19T11:56:02;17.42;;;3.47;;
33138;SDS011;19501;50.948;5.316;2023-10-19T11:58:32;13.77;;;3.42;;
33138;SDS011;19501;50.948;5.316;2023-10-19T12:01:06;16.33;;;4.00;;
33138;SDS011;19501;50.948;5.316;2023-10-19T12:03:36;22.65;;;3.53;;
33138;SDS011;19501;50.948;5.316;2023-10-19T12:06:03;12.75;;;2.92;;
33138;SDS011;19501;50.948;5.316;2023-10-19T12:08:31;14.50;;;3.30;;
33138;SDS011;19501;50.948;5.316;2023-10-19T12:10:58;17.20;;;3.60;;
33138;SDS011;19501;50.948;5.316;2023-10-19T12:13:27;16.05;;;4.15;;
33138;SDS011;19501;50.948;5.316;2023-10-19T12:15:53;18.38;;;4.38;;
33138;SDS011;19501;50.948;5.316;2023-10-19T12:18:20;15.45;;;3.70;;
33138;SDS011;19501;50.948;5.316;2023-10-19T12:20:46;12.82;;;3.72;;
33138;SDS011;19501;50.948;5.316;2023-10-19T12:23:13;14.60;;;3.92;;
33138;SDS011;19501;50.948;5.316;2023-10-19T12:25:41;16.67;;;4.22;;
33138;SDS011;19501;50.948;5.316;2023-10-19T12:28:07;12.40;;;3.88;;
33138;SDS011;19501;50.948;5.316;2023-10-19T12:30:37;17.48;;;3.72;;
33138;SDS011;19501;50.948;5.316;2023-10-19T12:33:04;14.90;;;3.72;;
33138;SDS011;19501;50.948;5.316;2023-10-19T12:35:41;17.83;;;4.03;;
33138;SDS011;19501;50.948;5.316;2023-10-19T12:38:13;13.68;;;3.33;;
33138;SDS011;19501;50.948;5.316;2023-10-19T12:40:43;9.20;;;3.35;;
33138;SDS011;19501;50.948;5.316;2023-10-19T12:43:09;13.27;;;3.67;;
33138;SDS011;19501;50.948;5.316;2023-10-19T12:45:35;15.38;;;4.20;;
33138;SDS011;19501;50.948;5.316;2023-10-19T12:48:02;16.73;;;3.97;;
33138;SDS011;19501;50.948;5.316;2023-10-19T12:50:29;15.43;;;3.40;;
33138;SDS011;19501;50.948;5.316;2023-10-19T12:52:56;17.05;;;4.22;;
33138;SDS011;19501;50.948;5.316;2023-10-19T12:55:21;21.98;;;5.55;;
33138;SDS011;19501;50.948;5.316;2023-10-19T12:57:50;11.85;;;3.85;;
33138;SDS011;19501;50.948;5.316;2023-10-19T13:00:16;15.18;;;4.78;;
33138;SDS011;19501;50.948;5.316;2023-10-19T13:03:03;16.13;;;3.97;;
33138;SDS011;19501;50.948;5.316;2023-10-19T13:05:33;22.95;;;5.65;;
33138;SDS011;19501;50.948;5.316;2023-10-19T13:08:00;14.30;;;3.67;;
33138;SDS011;19501;50.948;5.316;2023-10-19T13:10:28;16.30;;;4.05;;
33138;SDS011;19501;50.948;5.316;2023-10-19T13:12:59;14.82;;;3.85;;
33138;SDS011;19501;50.948;5.316;2023-10-19T13:15:28;15.15;;;3.95;;
33138;SDS011;19501;50.948;5.316;2023-10-19T13:17:59;12.98;;;4.30;;
33138;SDS011;19501;50.948;5.316;2023-10-19T13:20:32;12.27;;;3.92;;
33138;SDS011;19501;50.948;5.316;2023-10-19T13:23:02;11.27;;;3.40;;
33138;SDS011;19501;50.948;5.316;2023-10-19T13:25:31;17.65;;;4.43;;
33138;SDS011;19501;50.948;5.316;2023-10-19T13:28:18;10.82;;;3.22;;
33138;SDS011;19501;50.948;5.316;2023-10-19T13:30:46;12.27;;;3.65;;
33138;SDS011;19501;50.948;5.316;2023-10-19T13:33:18;16.38;;;3.78;;
33138;SDS011;19501;50.948;5.316;2023-10-19T13:35:46;15.65;;;3.78;;
33138;SDS011;19501;50.948;5.316;2023-10-19T13:38:13;15.45;;;3.92;;
33138;SDS011;19501;50.948;5.316;2023-10-19T13:40:40;16.63;;;3.72;;
33138;SDS011;19501;50.948;5.316;2023-10-19T13:43:07;17.50;;;4.15;;
33138;SDS011;19501;50.948;5.316;2023-10-19T13:45:34;12.35;;;3.83;;
33138;SDS011;19501;50.948;5.316;2023-10-19T13:48:01;13.50;;;4.20;;
33138;SDS011;19501;50.948;5.316;2023-10-19T13:50:30;9.00;;;3.05;;
33138;SDS011;19501;50.948;5.316;2023-10-19T13:52:57;13.68;;;3.75;;
33138;SDS011;19501;50.948;5.316;2023-10-19T13:55:24;12.25;;;3.75;;
33138;SDS011;19501;50.948;5.316;2023-10-19T13:57:50;13.73;;;3.33;;
33138;SDS011;19501;50.948;5.316;2023-10-19T14:00:17;11.70;;;3.58;;
33138;SDS011;19501;50.948;5.316;2023-10-19T14:02:51;12.88;;;3.80;;
33138;SDS011;19501;50.948;5.316;2023-10-19T14:05:17;9.88;;;2.90;;
33138;SDS011;19501;50.948;5.316;2023-10-19T14:07:49;13.02;;;3.92;;
33138;SDS011;19501;50.948;5.316;2023-10-19T14:10:15;14.80;;;3.17;;
33138;SDS011;19501;50.948;5.316;2023-10-19T14:12:43;13.75;;;2.97;;
33138;SDS011;19501;50.948;5.316;2023-10-19T14:15:12;14.07;;;3.20;;
33138;SDS011;19501;50.948;5.316;2023-10-19T14:17:42;12.30;;;3.47;;
33138;SDS011;19501;50.948;5.316;2023-10-19T14:20:11;11.35;;;3.42;;
33138;SDS011;19501;50.948;5.316;2023-10-19T14:22:40;9.65;;;2.92;;
33138;SDS011;19501;50.948;5.316;2023-10-19T14:25:07;17.48;;;4.68;;
33138;SDS011;19501;50.948;5.316;2023-10-19T14:27:39;11.32;;;3.08;;
33138;SDS011;19501;50.948;5.316;2023-10-19T14:30:05;12.40;;;3.50;;
33138;SDS011;19501;50.948;5.316;2023-10-19T14:32:32;12.13;;;3.20;;
33138;SDS011;19501;50.948;5.316;2023-10-19T14:34:58;12.15;;;3.03;;
33138;SDS011;19501;50.948;5.316;2023-10-19T14:37:24;13.63;;;3.17;;
33138;SDS011;19501;50.948;5.316;2023-10-19T14:39:50;9.95;;;3.08;;
33138;SDS011;19501;50.948;5.316;2023-10-19T14:42:18;11.30;;;3.45;;
33138;SDS011;19501;50.948;5.316;2023-10-19T14:44:44;8.73;;;2.85;;
33138;SDS011;19501;50.948;5.316;2023-10-19T14:47:09;12.05;;;3.17;;
33138;SDS011;19501;50.948;5.316;2023-10-19T14:49:36;13.45;;;3.40;;
33138;SDS011;19501;50.948;5.316;2023-10-19T14:52:02;10.43;;;3.20;;
33138;SDS011;19501;50.948;5.316;2023-10-19T14:54:27;10.90;;;3.10;;
33138;SDS011;19501;50.948;5.316;2023-10-19T14:56:53;12.13;;;3.20;;
33138;SDS011;19501;50.948;5.316;2023-10-19T14:59:19;6.60;;;3.03;;
33138;SDS011;19501;50.948;5.316;2023-10-19T15:01:45;13.00;;;3.13;;
33138;SDS011;19501;50.948;5.316;2023-10-19T15:04:10;14.18;;;3.58;;
33138;SDS011;19501;50.948;5.316;2023-10-19T15:06:36;11.18;;;3.70;;
33138;SDS011;19501;50.948;5.316;2023-10-19T15:09:02;10.43;;;3.40;;
33138;SDS011;19501;50.948;5.316;2023-10-19T15:11:28;13.52;;;3.38;;
33138;SDS011;19501;50.948;5.316;2023-10-19T15:13:54;11.13;;;3.72;;
33138;SDS011;19501;50.948;5.316;2023-10-19T15:16:19;13.10;;;3.30;;
33138;SDS011;19501;50.948;5.316;2023-10-19T15:18:45;9.13;;;3.67;;
33138;SDS011;19501;50.948;5.316;2023-10-19T15:21:11;7.50;;;3.15;;